Time;durP1;ratioP1;P1;durP2;ratioP2;P2;SDS_P1;SDS_P2;PMS_P1;PMS_P2;Temp;Humidity;BMP_temperature;BMP_pressure;BME280_temperature;BME280_humidity;BME280_pressure;Samples;Min_cycle;Max_cycle;Signal;HPM_P1;HPM_P2
2024/01/29 00:09:54;;;;;;;37.50;16.60;;;;;;;4.22;86.32;102395.09;681401;1269;139469;-81
2024/01/29 00:25:02;;;;;;;38.90;17.50;;;;;;;3.98;87.01;102399.36;681598;1266;140335;-81
2024/01/29 00:40:08;;;;;;;33.80;16.60;;;;;;;3.73;87.66;102389.13;681422;1263;140404;-81
2024/01/29 00:55:15;;;;;;;41.90;18.50;;;;;;;3.64;89.68;102383.82;681635;1266;139288;-81
2024/01/29 01:10:22;;;;;;;34.80;16.70;;;;;;;3.60;90.57;102368.33;681661;1266;140307;-81
2024/01/29 01:25:29;;;;;;;35.00;16.10;;;;;;;3.55;92.81;102361.03;681535;1264;140368;-81
2024/01/29 01:40:34;;;;;;;44.90;19.50;;;;;;;3.51;93.76;102344.34;681325;1262;140382;-81
2024/01/29 01:55:39;;;;;;;41.90;18.30;;;;;;;3.56;94.77;102346.29;681468;1264;140279;-81
2024/01/29 02:10:46;;;;;;;44.30;19.30;;;;;;;3.64;94.99;102356.30;681468;1264;139049;-80
2024/01/29 02:25:54;;;;;;;31.80;16.80;;;;;;;3.18;97.46;102361.06;681463;1267;140551;-81
2024/01/29 02:41:02;;;;;;;38.60;16.40;;;;;;;2.96;99.45;102354.31;681241;1266;140477;-80
2024/01/29 02:56:09;;;;;;;45.50;18.50;;;;;;;3.31;97.34;102330.13;681476;1264;140007;-80
2024/01/29 03:11:16;;;;;;;40.20;18.80;;;;;;;3.13;98.59;102315.70;681621;1264;140171;-82
2024/01/29 03:26:23;;;;;;;43.70;20.30;;;;;;;2.97;100.00;102315.05;681639;1266;140029;-81
2024/01/29 03:41:30;;;;;;;38.80;19.30;;;;;;;2.92;100.00;102306.88;681141;1266;140184;-80
2024/01/29 03:56:38;;;;;;;45.10;20.90;;;;;;;2.82;100.00;102298.45;681637;1264;139985;-81
2024/01/29 04:11:44;;;;;;;45.60;21.40;;;;;;;2.71;100.00;102285.23;681298;1266;140411;-81
2024/01/29 04:26:50;;;;;;;47.90;20.10;;;;;;;2.67;100.00;102283.06;681315;1264;140380;-81
2024/01/29 04:41:57;;;;;;;63.20;23.40;;;;;;;2.63;100.00;102276.27;681416;1266;139838;-81
2024/01/29 04:57:03;;;;;;;45.90;19.00;;;;;;;2.59;100.00;102267.70;681399;1263;140776;-81
2024/01/29 05:12:09;;;;;;;45.20;20.20;;;;;;;2.73;100.00;102265.48;681390;1266;142283;-82
2024/01/29 05:27:17;;;;;;;50.70;22.20;;;;;;;2.80;100.00;102248.56;681434;1265;139180;-81
2024/01/29 05:42:25;;;;;;;54.30;22.70;;;;;;;2.79;100.00;102240.45;681369;1266;139231;-81
2024/01/29 05:57:32;;;;;;;55.90;22.80;;;;;;;2.62;100.00;102241.71;681320;1264;139606;-82
2024/01/29 06:12:40;;;;;;;56.00;25.80;;;;;;;2.60;100.00;102244.19;681454;1262;139524;-83
2024/01/29 06:27:47;;;;;;;51.50;23.80;;;;;;;2.36;100.00;102243.52;681136;1262;140671;-82
2024/01/29 06:42:57;;;;;;;66.80;25.90;;;;;;;2.20;100.00;102252.33;681244;1262;139768;-82
2024/01/29 06:58:04;;;;;;;54.00;25.00;;;;;;;2.29;100.00;102261.98;681232;1268;139299;-83
2024/01/29 07:13:15;;;;;;;53.80;25.20;;;;;;;2.34;100.00;102261.68;681496;1265;139219;-82
2024/01/29 07:28:20;;;;;;;58.10;25.10;;;;;;;2.53;100.00;102268.00;680759;1263;653027;-84
2024/01/29 07:43:28;;;;;;;56.30;25.60;;;;;;;2.70;100.00;102275.23;681332;1266;139499;-85
2024/01/29 07:58:34;;;;;;;58.50;26.10;;;;;;;2.80;100.00;102273.27;681303;1267;140014;-84
2024/01/29 08:13:42;;;;;;;56.60;24.80;;;;;;;3.18;100.00;102270.93;681665;1266;141663;-85
2024/01/29 08:28:49;;;;;;;203.90;107.40;;;;;;;5.27;95.60;102269.98;681469;1266;141181;-85
2024/01/29 08:43:55;;;;;;;162.50;45.70;;;;;;;5.78;88.63;102261.61;681564;1267;140071;-84
2024/01/29 08:59:00;;;;;;;44.90;23.60;;;;;;;6.41;85.19;102270.07;680842;1279;141349;-83
2024/01/29 09:14:10;;;;;;;41.70;22.00;;;;;;;7.07;80.26;102266.17;680956;1267;140663;-84
2024/01/29 09:29:18;;;;;;;46.30;21.60;;;;;;;9.02;74.76;102278.67;681024;1265;139949;-83
2024/01/29 09:44:27;;;;;;;35.80;18.70;;;;;;;9.63;68.96;102267.39;680762;1267;139491;-84
2024/01/29 09:59:33;;;;;;;37.10;20.00;;;;;;;9.48;67.12;102257.15;681193;1265;142606;-87
2024/01/29 10:14:40;;;;;;;54.40;26.50;;;;;;;9.58;66.97;102250.68;681327;1265;139306;-83
2024/01/29 10:29:47;;;;;;;34.90;20.50;;;;;;;10.03;66.79;102224.84;681219;1265;139673;-85
2024/01/29 10:44:58;;;;;;;34.20;19.50;;;;;;;9.84;65.31;102203.52;681333;1265;140387;-83
2024/01/29 11:00:10;;;;;;;38.50;20.10;;;;;;;10.00;65.61;102203.52;681193;1262;139305;-86
2024/01/29 11:15:18;;;;;;;31.50;18.00;;;;;;;9.85;65.24;102187.55;681274;1265;139139;-82
2024/01/29 11:30:27;;;;;;;34.20;18.40;;;;;;;9.77;65.27;102168.63;681059;1265;139583;-85
2024/01/29 11:45:35;;;;;;;46.00;19.80;;;;;;;10.74;66.56;102145.32;681201;1267;139427;-82
2024/01/29 12:00:46;;;;;;;27.00;15.60;;;;;;;10.53;66.17;102127.13;681125;1266;139386;-81
2024/01/29 12:15:54;;;;;;;48.60;21.70;;;;;;;9.71;68.21;102105.49;680851;1264;139425;-85
2024/01/29 12:31:06;;;;;;;35.80;18.10;;;;;;;8.59;68.73;102091.88;681097;1265;139077;-86
2024/01/29 12:46:14;;;;;;;30.50;16.60;;;;;;;8.04;69.60;102079.02;681081;1267;139235;-86
2024/01/29 13:01:23;;;;;;;33.60;18.50;;;;;;;7.87;70.95;102068.35;681383;1266;139820;-85
2024/01/29 13:16:29;;;;;;;38.70;19.80;;;;;;;7.93;72.12;102059.20;681206;1267;140202;-85
2024/01/29 13:31:40;;;;;;;91.00;48.90;;;;;;;8.07;72.31;102058.52;681244;1266;138961;-84
2024/01/29 13:46:50;;;;;;;193.90;79.70;;;;;;;8.02;72.57;102057.05;681285;1266;139632;-85
2024/01/29 14:01:59;;;;;;;38.10;19.30;;;;;;;7.69;73.18;102055.11;681410;1263;140509;-85
2024/01/29 14:17:07;;;;;;;46.70;21.00;;;;;;;7.48;73.93;102061.84;681243;1265;140015;-85
2024/01/29 14:32:18;;;;;;;88.40;46.10;;;;;;;7.28;74.82;102054.95;681571;1265;139667;-85
2024/01/29 14:47:25;;;;;;;45.30;22.70;;;;;;;6.96;76.10;102043.17;681260;1265;140075;-85
2024/01/29 15:02:34;;;;;;;101.90;33.90;;;;;;;6.76;76.24;102033.59;681413;1264;140062;-84
2024/01/29 15:17:40;;;;;;;50.70;25.40;;;;;;;6.40;77.52;102025.20;681422;1265;139312;-84
2024/01/29 15:32:46;;;;;;;34.20;17.80;;;;;;;6.22;77.82;102031.20;681197;1265;140114;-84
2024/01/29 15:47:57;;;;;;;60.00;28.90;;;;;;;5.80;79.20;102031.84;681034;1267;140355;-84
2024/01/29 16:03:04;;;;;;;46.00;22.70;;;;;;;5.59;79.89;102039.43;681235;1267;139126;-84
2024/01/29 16:18:21;;;;;;;66.20;31.30;;;;;;;5.43;80.63;102039.36;681195;1263;140073;-84
2024/01/29 16:33:31;;;;;;;49.80;21.80;;;;;;;5.39;81.53;102049.23;681284;1268;139997;-83
2024/01/29 16:48:39;;;;;;;62.90;33.60;;;;;;;5.26;82.24;102044.70;681374;1266;138989;-83
2024/01/29 17:03:48;;;;;;;73.20;30.60;;;;;;;5.38;83.49;102037.46;681211;1266;138945;-84
2024/01/29 17:18:56;;;;;;;70.40;27.10;;;;;;;5.42;84.40;102026.73;681406;1268;138953;-84
2024/01/29 17:34:04;;;;;;;67.10;23.20;;;;;;;5.56;84.07;102030.49;681303;1266;139559;-84
2024/01/29 17:49:12;;;;;;;90.30;36.00;;;;;;;5.55;84.34;102038.36;681510;1267;140012;-85
2024/01/29 18:04:19;;;;;;;48.50;23.90;;;;;;;5.48;84.01;102030.66;681640;1266;140417;-84
2024/01/29 18:19:27;;;;;;;55.50;25.10;;;;;;;5.40;84.86;102028.86;681941;1267;140608;-84
2024/01/29 18:34:38;;;;;;;63.50;31.20;;;;;;;5.41;84.49;102030.05;681753;1263;138996;-85
2024/01/29 18:49:45;;;;;;;49.90;22.60;;;;;;;5.35;84.36;102029.05;681427;1267;139097;-84
2024/01/29 19:05:00;;;;;;;75.80;32.60;;;;;;;5.37;84.92;102029.52;681198;1264;140283;-83
2024/01/29 19:20:10;;;;;;;74.50;33.40;;;;;;;5.25;85.04;102010.38;681780;1262;138958;-83
2024/01/29 19:35:18;;;;;;;48.80;24.10;;;;;;;5.30;85.10;102015.22;680898;1267;668379;-84
2024/01/29 19:50:25;;;;;;;66.20;28.20;;;;;;;5.32;85.08;102017.03;681635;1267;139677;-83
2024/01/29 20:05:32;;;;;;;200.00;67.70;;;;;;;5.16;84.89;102004.83;681188;1264;140037;-83
2024/01/29 20:20:40;;;;;;;;;;;;;;;4.95;85.18;101976.63;681508;1265;139083;-85
2024/01/29 20:35:46;;;;;;;;;;;;;;;4.95;85.74;101962.23;681604;1276;124866;-84
2024/01/29 20:50:54;;;;;;;63.70;26.50;;;;;;;5.02;86.43;101962.50;681850;1266;125697;-84
2024/01/29 21:06:01;;;;;;;70.60;32.40;;;;;;;5.07;86.34;101955.71;681367;1266;139371;-85
2024/01/29 21:21:08;;;;;;;64.30;28.00;;;;;;;4.82;86.49;101955.26;681323;1270;138954;-84
2024/01/29 21:36:23;;;;;;;68.70;30.50;;;;;;;4.73;87.29;101961.30;681323;1269;139065;-84
2024/01/29 21:51:33;;;;;;;59.20;27.80;;;;;;;4.69;86.53;101956.26;681622;1266;139182;-83
2024/01/29 22:06:42;;;;;;;59.70;26.60;;;;;;;4.60;86.77;101957.30;681589;1263;139140;-81
2024/01/29 22:21:55;;;;;;;83.70;33.80;;;;;;;4.41;86.00;101961.40;681527;1262;140254;-85
2024/01/29 22:37:02;;;;;;;68.90;29.40;;;;;;;4.12;86.34;101966.05;681356;1267;140567;-84
2024/01/29 22:52:09;;;;;;;56.50;24.80;;;;;;;3.82;86.98;101962.55;681549;1265;139060;-84
2024/01/29 23:07:17;;;;;;;60.40;27.00;;;;;;;3.91;88.90;101956.17;681748;1262;140656;-84
2024/01/29 23:22:24;;;;;;;61.10;26.10;;;;;;;3.96;88.19;101935.27;681568;1262;139148;-83
2024/01/29 23:37:30;;;;;;;54.30;23.80;;;;;;;3.84;87.80;101933.40;681589;1265;138871;-84
2024/01/29 23:52:37;;;;;;;52.80;23.30;;;;;;;3.77;88.18;101905.77;681706;1262;140469;-83
